sensor_id;sensor_type;location;lat;lon;timestamp;P1;durP1;ratioP1;P2;durP2;ratioP2
28934;SDS011;16044;52.726;-2.108;2023-07-22T00:01:32;4.13;;;1.40;;
28934;SDS011;16044;52.726;-2.108;2023-07-22T00:04:03;4.10;;;1.60;;
28934;SDS011;16044;52.726;-2.108;2023-07-22T00:06:34;3.65;;;1.40;;
28934;SDS011;16044;52.726;-2.108;2023-07-22T00:09:07;6.05;;;1.20;;
28934;SDS011;16044;52.726;-2.108;2023-07-22T00:11:37;2.75;;;1.02;;
28934;SDS011;16044;52.726;-2.108;2023-07-22T00:14:08;4.07;;;1.25;;
28934;SDS011;16044;52.726;-2.108;2023-07-22T00:16:38;2.17;;;1.20;;
28934;SDS011;16044;52.726;-2.108;2023-07-22T00:19:09;2.33;;;1.15;;
28934;SDS011;16044;52.726;-2.108;2023-07-22T00:21:40;4.03;;;1.20;;
28934;SDS011;16044;52.726;-2.108;2023-07-22T00:24:13;3.60;;;1.33;;
28934;SDS011;16044;52.726;-2.108;2023-07-22T00:26:44;5.45;;;1.30;;
28934;SDS011;16044;52.726;-2.108;2023-07-22T00:29:14;3.55;;;1.60;;
28934;SDS011;16044;52.726;-2.108;2023-07-22T00:31:45;3.45;;;1.67;;
28934;SDS011;16044;52.726;-2.108;2023-07-22T00:34:16;4.03;;;1.88;;
28934;SDS011;16044;52.726;-2.108;2023-07-22T00:36:46;5.38;;;1.85;;
28934;SDS011;16044;52.726;-2.108;2023-07-22T00:39:19;6.63;;;2.05;;
28934;SDS011;16044;52.726;-2.108;2023-07-22T00:41:50;3.67;;;1.85;;
28934;SDS011;16044;52.726;-2.108;2023-07-22T00:44:20;4.47;;;2.03;;
28934;SDS011;16044;52.726;-2.108;2023-07-22T00:46:50;5.45;;;2.30;;
28934;SDS011;16044;52.726;-2.108;2023-07-22T00:49:24;4.30;;;2.22;;
28934;SDS011;16044;52.726;-2.108;2023-07-22T00:51:57;4.75;;;2.20;;
28934;SDS011;16044;52.726;-2.108;2023-07-22T00:54:34;4.97;;;2.15;;
28934;SDS011;16044;52.726;-2.108;2023-07-22T00:57:04;4.60;;;2.47;;
28934;SDS011;16044;52.726;-2.108;2023-07-22T00:59:36;4.25;;;2.70;;
28934;SDS011;16044;52.726;-2.108;2023-07-22T01:02:06;5.88;;;2.20;;
28934;SDS011;16044;52.726;-2.108;2023-07-22T01:04:37;4.97;;;2.10;;
28934;SDS011;16044;52.726;-2.108;2023-07-22T01:07:08;5.32;;;2.33;;
28934;SDS011;16044;52.726;-2.108;2023-07-22T01:09:41;5.43;;;2.53;;
28934;SDS011;16044;52.726;-2.108;2023-07-22T01:12:12;3.58;;;2.15;;
28934;SDS011;16044;52.726;-2.108;2023-07-22T01:14:43;5.18;;;2.45;;
28934;SDS011;16044;52.726;-2.108;2023-07-22T01:17:13;3.58;;;1.90;;
28934;SDS011;16044;52.726;-2.108;2023-07-22T01:19:43;5.15;;;1.90;;
28934;SDS011;16044;52.726;-2.108;2023-07-22T01:22:14;2.95;;;1.90;;
28934;SDS011;16044;52.726;-2.108;2023-07-22T01:24:49;4.50;;;1.98;;
28934;SDS011;16044;52.726;-2.108;2023-07-22T01:27:20;4.90;;;1.80;;
28934;SDS011;16044;52.726;-2.108;2023-07-22T01:29:50;4.85;;;1.88;;
28934;SDS011;16044;52.726;-2.108;2023-07-22T01:32:21;6.22;;;2.10;;
28934;SDS011;16044;52.726;-2.108;2023-07-22T01:34:51;3.83;;;1.70;;
28934;SDS011;16044;52.726;-2.108;2023-07-22T01:37:22;4.30;;;2.00;;
28934;SDS011;16044;52.726;-2.108;2023-07-22T01:39:55;3.85;;;1.80;;
28934;SDS011;16044;52.726;-2.108;2023-07-22T01:42:25;5.38;;;1.95;;
28934;SDS011;16044;52.726;-2.108;2023-07-22T01:44:56;3.35;;;1.90;;
28934;SDS011;16044;52.726;-2.108;2023-07-22T01:47:26;5.20;;;1.80;;
28934;SDS011;16044;52.726;-2.108;2023-07-22T01:49:56;4.88;;;1.90;;
28934;SDS011;16044;52.726;-2.108;2023-07-22T01:52:27;4.28;;;2.20;;
28934;SDS011;16044;52.726;-2.108;2023-07-22T01:54:59;5.70;;;2.00;;
28934;SDS011;16044;52.726;-2.108;2023-07-22T01:57:32;3.63;;;1.88;;
28934;SDS011;16044;52.726;-2.108;2023-07-22T02:00:03;3.75;;;1.98;;
28934;SDS011;16044;52.726;-2.108;2023-07-22T02:05:08;4.65;;;2.03;;
28934;SDS011;16044;52.726;-2.108;2023-07-22T02:07:39;5.25;;;2.35;;
28934;SDS011;16044;52.726;-2.108;2023-07-22T02:10:12;4.20;;;2.17;;
28934;SDS011;16044;52.726;-2.108;2023-07-22T02:12:43;4.45;;;2.00;;
28934;SDS011;16044;52.726;-2.108;2023-07-22T02:15:13;5.40;;;2.33;;
28934;SDS011;16044;52.726;-2.108;2023-07-22T02:17:43;5.53;;;2.30;;
28934;SDS011;16044;52.726;-2.108;2023-07-22T02:20:15;3.83;;;2.20;;
28934;SDS011;16044;52.726;-2.108;2023-07-22T02:22:45;4.55;;;2.20;;
28934;SDS011;16044;52.726;-2.108;2023-07-22T02:25:18;3.72;;;1.92;;
28934;SDS011;16044;52.726;-2.108;2023-07-22T02:27:49;4.63;;;2.25;;
28934;SDS011;16044;52.726;-2.108;2023-07-22T02:30:19;5.28;;;2.22;;
28934;SDS011;16044;52.726;-2.108;2023-07-22T02:32:49;4.97;;;2.53;;
28934;SDS011;16044;52.726;-2.108;2023-07-22T02:35:20;6.88;;;2.00;;
28934;SDS011;16044;52.726;-2.108;2023-07-22T02:37:50;5.05;;;2.67;;
28934;SDS011;16044;52.726;-2.108;2023-07-22T02:40:23;4.00;;;2.10;;
28934;SDS011;16044;52.726;-2.108;2023-07-22T02:42:53;4.80;;;2.10;;
28934;SDS011;16044;52.726;-2.108;2023-07-22T02:45:23;8.50;;;2.40;;
28934;SDS011;16044;52.726;-2.108;2023-07-22T02:47:54;6.38;;;2.13;;
28934;SDS011;16044;52.726;-2.108;2023-07-22T02:50:24;3.97;;;2.20;;
28934;SDS011;16044;52.726;-2.108;2023-07-22T02:52:55;4.43;;;2.38;;
28934;SDS011;16044;52.726;-2.108;2023-07-22T02:55:28;5.57;;;2.17;;
28934;SDS011;16044;52.726;-2.108;2023-07-22T02:57:58;5.25;;;2.60;;
28934;SDS011;16044;52.726;-2.108;2023-07-22T03:00:29;5.07;;;2.40;;
28934;SDS011;16044;52.726;-2.108;2023-07-22T03:02:59;4.28;;;2.30;;
28934;SDS011;16044;52.726;-2.108;2023-07-22T03:05:31;6.80;;;2.22;;
28934;SDS011;16044;52.726;-2.108;2023-07-22T03:08:02;4.78;;;2.65;;
28934;SDS011;16044;52.726;-2.108;2023-07-22T03:10:36;8.32;;;3.00;;
28934;SDS011;16044;52.726;-2.108;2023-07-22T03:13:07;6.90;;;3.33;;
28934;SDS011;16044;52.726;-2.108;2023-07-22T03:15:37;4.13;;;2.60;;
28934;SDS011;16044;52.726;-2.108;2023-07-22T03:18:07;5.32;;;2.80;;
28934;SDS011;16044;52.726;-2.108;2023-07-22T03:20:39;4.43;;;2.80;;
28934;SDS011;16044;52.726;-2.108;2023-07-22T03:23:09;6.25;;;3.20;;
28934;SDS011;16044;52.726;-2.108;2023-07-22T03:25:42;6.22;;;3.00;;
28934;SDS011;16044;52.726;-2.108;2023-07-22T03:28:13;7.05;;;3.40;;
28934;SDS011;16044;52.726;-2.108;2023-07-22T03:30:43;5.82;;;3.13;;
28934;SDS011;16044;52.726;-2.108;2023-07-22T03:33:14;8.43;;;3.88;;
28934;SDS011;16044;52.726;-2.108;2023-07-22T03:35:44;9.55;;;3.63;;
28934;SDS011;16044;52.726;-2.108;2023-07-22T03:38:15;6.90;;;3.30;;
28934;SDS011;16044;52.726;-2.108;2023-07-22T03:40:48;5.97;;;3.60;;
28934;SDS011;16044;52.726;-2.108;2023-07-22T03:43:19;8.57;;;3.65;;
28934;SDS011;16044;52.726;-2.108;2023-07-22T03:45:49;7.97;;;3.70;;
28934;SDS011;16044;52.726;-2.108;2023-07-22T03:48:20;10.63;;;3.75;;
28934;SDS011;16044;52.726;-2.108;2023-07-22T03:50:50;7.00;;;4.00;;
28934;SDS011;16044;52.726;-2.108;2023-07-22T03:53:38;7.13;;;3.88;;
28934;SDS011;16044;52.726;-2.108;2023-07-22T03:56:10;10.07;;;4.18;;
28934;SDS011;16044;52.726;-2.108;2023-07-22T03:58:41;9.27;;;4.45;;
28934;SDS011;16044;52.726;-2.108;2023-07-22T04:01:11;10.40;;;4.75;;
28934;SDS011;16044;52.726;-2.108;2023-07-22T04:03:42;7.68;;;4.22;;
28934;SDS011;16044;52.726;-2.108;2023-07-22T04:06:12;9.95;;;4.68;;
28934;SDS011;16044;52.726;-2.108;2023-07-22T04:08:43;10.15;;;4.75;;
28934;SDS011;16044;52.726;-2.108;2023-07-22T04:11:16;8.80;;;4.70;;
28934;SDS011;16044;52.726;-2.108;2023-07-22T04:13:46;10.52;;;5.10;;
28934;SDS011;16044;52.726;-2.108;2023-07-22T04:16:16;11.00;;;5.07;;
28934;SDS011;16044;52.726;-2.108;2023-07-22T04:18:47;9.60;;;4.82;;
28934;SDS011;16044;52.726;-2.108;2023-07-22T04:21:17;12.10;;;5.55;;
28934;SDS011;16044;52.726;-2.108;2023-07-22T04:23:47;16.13;;;5.30;;
28934;SDS011;16044;52.726;-2.108;2023-07-22T04:26:20;12.02;;;4.85;;
28934;SDS011;16044;52.726;-2.108;2023-07-22T04:28:51;13.77;;;5.10;;
28934;SDS011;16044;52.726;-2.108;2023-07-22T04:31:22;10.75;;;4.97;;
28934;SDS011;16044;52.726;-2.108;2023-07-22T04:33:53;12.32;;;5.82;;
28934;SDS011;16044;52.726;-2.108;2023-07-22T04:36:23;13.43;;;5.90;;
28934;SDS011;16044;52.726;-2.108;2023-07-22T04:38:54;10.57;;;6.38;;
28934;SDS011;16044;52.726;-2.108;2023-07-22T04:41:27;16.80;;;6.10;;
28934;SDS011;16044;52.726;-2.108;2023-07-22T04:43:58;11.30;;;6.38;;
28934;SDS011;16044;52.726;-2.108;2023-07-22T04:46:28;14.60;;;5.97;;
28934;SDS011;16044;52.726;-2.108;2023-07-22T04:48:58;9.98;;;5.88;;
28934;SDS011;16044;52.726;-2.108;2023-07-22T04:51:29;12.05;;;6.85;;
28934;SDS011;16044;52.726;-2.108;2023-07-22T04:54:00;14.88;;;7.30;;
28934;SDS011;16044;52.726;-2.108;2023-07-22T04:56:33;11.75;;;6.65;;
28934;SDS011;16044;52.726;-2.108;2023-07-22T04:59:05;11.98;;;7.03;;
28934;SDS011;16044;52.726;-2.108;2023-07-22T05:01:35;14.13;;;7.40;;
28934;SDS011;16044;52.726;-2.108;2023-07-22T05:04:06;16.20;;;7.55;;
28934;SDS011;16044;52.726;-2.108;2023-07-22T05:06:36;12.23;;;7.05;;
28934;SDS011;16044;52.726;-2.108;2023-07-22T05:09:06;12.60;;;6.55;;
28934;SDS011;16044;52.726;-2.108;2023-07-22T05:11:39;12.32;;;6.82;;
28934;SDS011;16044;52.726;-2.108;2023-07-22T05:14:09;13.13;;;7.38;;
28934;SDS011;16044;52.726;-2.108;2023-07-22T05:16:40;14.55;;;6.75;;
28934;SDS011;16044;52.726;-2.108;2023-07-22T05:19:10;13.00;;;6.32;;
28934;SDS011;16044;52.726;-2.108;2023-07-22T05:21:41;13.48;;;6.25;;
28934;SDS011;16044;52.726;-2.108;2023-07-22T05:24:11;10.40;;;5.13;;
28934;SDS011;16044;52.726;-2.108;2023-07-22T05:26:44;12.95;;;6.10;;
28934;SDS011;16044;52.726;-2.108;2023-07-22T05:29:34;12.18;;;6.05;;
28934;SDS011;16044;52.726;-2.108;2023-07-22T05:32:05;13.10;;;6.10;;
28934;SDS011;16044;52.726;-2.108;2023-07-22T05:34:57;11.23;;;6.07;;
28934;SDS011;16044;52.726;-2.108;2023-07-22T05:37:28;10.80;;;6.35;;
28934;SDS011;16044;52.726;-2.108;2023-07-22T05:39:58;14.13;;;6.30;;
28934;SDS011;16044;52.726;-2.108;2023-07-22T05:42:32;15.60;;;6.05;;
28934;SDS011;16044;52.726;-2.108;2023-07-22T05:45:02;14.20;;;6.97;;
28934;SDS011;16044;52.726;-2.108;2023-07-22T05:47:34;13.05;;;6.85;;
28934;SDS011;16044;52.726;-2.108;2023-07-22T05:50:05;14.75;;;6.88;;
28934;SDS011;16044;52.726;-2.108;2023-07-22T05:52:37;14.10;;;7.05;;
28934;SDS011;16044;52.726;-2.108;2023-07-22T05:55:07;12.57;;;6.68;;
28934;SDS011;16044;52.726;-2.108;2023-07-22T05:57:41;12.05;;;6.82;;
28934;SDS011;16044;52.726;-2.108;2023-07-22T06:00:12;10.18;;;6.25;;
28934;SDS011;16044;52.726;-2.108;2023-07-22T06:02:44;11.40;;;6.80;;
28934;SDS011;16044;52.726;-2.108;2023-07-22T06:05:15;12.88;;;6.60;;
28934;SDS011;16044;52.726;-2.108;2023-07-22T06:07:46;12.50;;;6.63;;
28934;SDS011;16044;52.726;-2.108;2023-07-22T06:10:16;12.70;;;6.90;;
28934;SDS011;16044;52.726;-2.108;2023-07-22T06:12:49;15.40;;;7.15;;
28934;SDS011;16044;52.726;-2.108;2023-07-22T06:15:19;14.18;;;7.22;;
28934;SDS011;16044;52.726;-2.108;2023-07-22T06:17:50;12.15;;;6.70;;
28934;SDS011;16044;52.726;-2.108;2023-07-22T06:20:20;13.07;;;7.22;;
28934;SDS011;16044;52.726;-2.108;2023-07-22T06:22:51;12.95;;;7.15;;
28934;SDS011;16044;52.726;-2.108;2023-07-22T06:25:21;13.00;;;7.10;;
28934;SDS011;16044;52.726;-2.108;2023-07-22T06:27:54;12.98;;;7.00;;
28934;SDS011;16044;52.726;-2.108;2023-07-22T06:30:24;14.50;;;7.00;;
28934;SDS011;16044;52.726;-2.108;2023-07-22T06:32:55;14.55;;;7.30;;
28934;SDS011;16044;52.726;-2.108;2023-07-22T06:35:25;14.45;;;7.63;;
28934;SDS011;16044;52.726;-2.108;2023-07-22T06:37:56;13.27;;;6.60;;
28934;SDS011;16044;52.726;-2.108;2023-07-22T06:40:26;12.93;;;7.22;;
28934;SDS011;16044;52.726;-2.108;2023-07-22T06:42:59;16.17;;;7.35;;
28934;SDS011;16044;52.726;-2.108;2023-07-22T06:45:29;13.57;;;7.53;;
28934;SDS011;16044;52.726;-2.108;2023-07-22T06:48:01;13.50;;;6.55;;
28934;SDS011;16044;52.726;-2.108;2023-07-22T06:50:32;11.65;;;6.85;;
28934;SDS011;16044;52.726;-2.108;2023-07-22T06:53:02;12.63;;;6.88;;
28934;SDS011;16044;52.726;-2.108;2023-07-22T06:55:33;14.55;;;7.68;;
28934;SDS011;16044;52.726;-2.108;2023-07-22T06:58:06;14.18;;;6.97;;
28934;SDS011;16044;52.726;-2.108;2023-07-22T07:00:36;14.52;;;7.22;;
28934;SDS011;16044;52.726;-2.108;2023-07-22T07:03:06;15.75;;;7.88;;
28934;SDS011;16044;52.726;-2.108;2023-07-22T07:05:37;14.63;;;7.28;;
28934;SDS011;16044;52.726;-2.108;2023-07-22T07:08:08;16.55;;;7.65;;
28934;SDS011;16044;52.726;-2.108;2023-07-22T07:10:39;12.43;;;7.35;;
28934;SDS011;16044;52.726;-2.108;2023-07-22T07:13:12;13.20;;;7.32;;
28934;SDS011;16044;52.726;-2.108;2023-07-22T07:15:45;18.27;;;8.05;;
28934;SDS011;16044;52.726;-2.108;2023-07-22T07:18:18;14.57;;;7.55;;
28934;SDS011;16044;52.726;-2.108;2023-07-22T07:20:48;14.98;;;7.95;;
28934;SDS011;16044;52.726;-2.108;2023-07-22T07:23:18;16.17;;;8.48;;
28934;SDS011;16044;52.726;-2.108;2023-07-22T07:25:49;12.50;;;8.85;;
28934;SDS011;16044;52.726;-2.108;2023-07-22T07:28:25;14.55;;;8.57;;
28934;SDS011;16044;52.726;-2.108;2023-07-22T07:30:55;14.65;;;8.65;;
28934;SDS011;16044;52.726;-2.108;2023-07-22T07:33:26;18.55;;;9.13;;
28934;SDS011;16044;52.726;-2.108;2023-07-22T07:35:56;16.95;;;9.10;;
28934;SDS011;16044;52.726;-2.108;2023-07-22T07:38:26;19.08;;;10.13;;
28934;SDS011;16044;52.726;-2.108;2023-07-22T07:40:57;18.50;;;9.20;;
28934;SDS011;16044;52.726;-2.108;2023-07-22T07:43:32;22.08;;;9.55;;
28934;SDS011;16044;52.726;-2.108;2023-07-22T07:46:11;20.45;;;9.85;;
28934;SDS011;16044;52.726;-2.108;2023-07-22T07:48:45;17.52;;;9.32;;
28934;SDS011;16044;52.726;-2.108;2023-07-22T07:51:16;15.60;;;9.75;;
28934;SDS011;16044;52.726;-2.108;2023-07-22T07:53:49;18.85;;;10.10;;
28934;SDS011;16044;52.726;-2.108;2023-07-22T07:56:20;20.02;;;10.10;;
28934;SDS011;16044;52.726;-2.108;2023-07-22T07:58:54;22.23;;;10.95;;
28934;SDS011;16044;52.726;-2.108;2023-07-22T08:01:25;17.42;;;9.73;;
28934;SDS011;16044;52.726;-2.108;2023-07-22T08:03:55;17.70;;;10.52;;
28934;SDS011;16044;52.726;-2.108;2023-07-22T08:06:26;17.52;;;10.75;;
28934;SDS011;16044;52.726;-2.108;2023-07-22T08:08:56;21.63;;;11.30;;
28934;SDS011;16044;52.726;-2.108;2023-07-22T08:11:27;17.17;;;10.63;;
28934;SDS011;16044;52.726;-2.108;2023-07-22T08:14:00;17.52;;;11.50;;
28934;SDS011;16044;52.726;-2.108;2023-07-22T08:16:32;17.45;;;10.65;;
28934;SDS011;16044;52.726;-2.108;2023-07-22T08:19:02;16.65;;;11.10;;
28934;SDS011;16044;52.726;-2.108;2023-07-22T08:21:32;17.73;;;11.20;;
28934;SDS011;16044;52.726;-2.108;2023-07-22T08:24:03;17.38;;;10.68;;
28934;SDS011;16044;52.726;-2.108;2023-07-22T08:26:35;19.05;;;10.63;;
28934;SDS011;16044;52.726;-2.108;2023-07-22T08:29:08;16.23;;;9.77;;
28934;SDS011;16044;52.726;-2.108;2023-07-22T08:31:38;16.05;;;10.23;;
28934;SDS011;16044;52.726;-2.108;2023-07-22T08:34:09;16.10;;;9.57;;
28934;SDS011;16044;52.726;-2.108;2023-07-22T08:36:40;15.98;;;9.35;;
28934;SDS011;16044;52.726;-2.108;2023-07-22T08:39:11;14.57;;;9.27;;
28934;SDS011;16044;52.726;-2.108;2023-07-22T08:41:41;15.40;;;9.00;;
28934;SDS011;16044;52.726;-2.108;2023-07-22T08:44:21;13.55;;;7.55;;
28934;SDS011;16044;52.726;-2.108;2023-07-22T08:46:55;13.43;;;8.02;;
28934;SDS011;16044;52.726;-2.108;2023-07-22T08:49:28;14.20;;;7.32;;
28934;SDS011;16044;52.726;-2.108;2023-07-22T08:51:58;10.02;;;6.57;;
28934;SDS011;16044;52.726;-2.108;2023-07-22T08:54:30;11.02;;;7.18;;
28934;SDS011;16044;52.726;-2.108;2023-07-22T08:57:00;12.88;;;6.65;;
28934;SDS011;16044;52.726;-2.108;2023-07-22T08:59:34;9.85;;;6.60;;
28934;SDS011;16044;52.726;-2.108;2023-07-22T09:02:05;9.90;;;6.03;;
28934;SDS011;16044;52.726;-2.108;2023-07-22T09:04:38;11.50;;;6.38;;
28934;SDS011;16044;52.726;-2.108;2023-07-22T09:07:08;9.65;;;5.60;;
28934;SDS011;16044;52.726;-2.108;2023-07-22T09:09:41;9.25;;;5.78;;
28934;SDS011;16044;52.726;-2.108;2023-07-22T09:12:12;10.32;;;5.90;;
28934;SDS011;16044;52.726;-2.108;2023-07-22T09:14:46;8.10;;;5.28;;
28934;SDS011;16044;52.726;-2.108;2023-07-22T09:17:17;8.68;;;5.65;;
28934;SDS011;16044;52.726;-2.108;2023-07-22T09:19:51;8.93;;;5.68;;
28934;SDS011;16044;52.726;-2.108;2023-07-22T09:22:24;8.93;;;5.63;;
28934;SDS011;16044;52.726;-2.108;2023-07-22T09:25:03;8.13;;;5.10;;
28934;SDS011;16044;52.726;-2.108;2023-07-22T09:27:43;8.55;;;5.47;;
28934;SDS011;16044;52.726;-2.108;2023-07-22T09:30:27;9.13;;;5.63;;
28934;SDS011;16044;52.726;-2.108;2023-07-22T09:32:59;9.77;;;5.80;;
28934;SDS011;16044;52.726;-2.108;2023-07-22T09:35:43;9.32;;;5.78;;
28934;SDS011;16044;52.726;-2.108;2023-07-22T09:38:20;6.80;;;4.80;;
28934;SDS011;16044;52.726;-2.108;2023-07-22T09:40:53;9.13;;;5.88;;
28934;SDS011;16044;52.726;-2.108;2023-07-22T09:43:23;12.63;;;5.88;;
28934;SDS011;16044;52.726;-2.108;2023-07-22T09:45:56;8.43;;;4.97;;
28934;SDS011;16044;52.726;-2.108;2023-07-22T09:48:39;8.25;;;5.25;;
28934;SDS011;16044;52.726;-2.108;2023-07-22T09:51:12;8.40;;;4.70;;
28934;SDS011;16044;52.726;-2.108;2023-07-22T09:53:44;7.68;;;4.45;;
28934;SDS011;16044;52.726;-2.108;2023-07-22T09:56:15;10.23;;;4.47;;
28934;SDS011;16044;52.726;-2.108;2023-07-22T09:58:46;9.63;;;5.28;;
28934;SDS011;16044;52.726;-2.108;2023-07-22T10:01:19;8.93;;;4.65;;
28934;SDS011;16044;52.726;-2.108;2023-07-22T10:03:54;7.55;;;4.50;;
28934;SDS011;16044;52.726;-2.108;2023-07-22T10:06:26;8.00;;;4.80;;
28934;SDS011;16044;52.726;-2.108;2023-07-22T10:08:58;6.93;;;4.57;;
28934;SDS011;16044;52.726;-2.108;2023-07-22T10:11:34;6.38;;;4.10;;
28934;SDS011;16044;52.726;-2.108;2023-07-22T10:14:05;7.90;;;4.43;;
28934;SDS011;16044;52.726;-2.108;2023-07-22T10:16:38;6.78;;;3.92;;
28934;SDS011;16044;52.726;-2.108;2023-07-22T10:19:09;6.10;;;4.32;;
28934;SDS011;16044;52.726;-2.108;2023-07-22T10:21:40;6.93;;;4.30;;
28934;SDS011;16044;52.726;-2.108;2023-07-22T10:24:11;5.90;;;3.90;;
28934;SDS011;16044;52.726;-2.108;2023-07-22T10:26:42;6.03;;;4.13;;
28934;SDS011;16044;52.726;-2.108;2023-07-22T10:29:18;5.97;;;3.85;;
28934;SDS011;16044;52.726;-2.108;2023-07-22T10:31:52;5.97;;;4.15;;
28934;SDS011;16044;52.726;-2.108;2023-07-22T10:34:23;6.70;;;4.13;;
28934;SDS011;16044;52.726;-2.108;2023-07-22T10:36:55;5.85;;;4.25;;
28934;SDS011;16044;52.726;-2.108;2023-07-22T10:39:26;6.53;;;4.38;;
28934;SDS011;16044;52.726;-2.108;2023-07-22T10:41:59;7.53;;;4.40;;
28934;SDS011;16044;52.726;-2.108;2023-07-22T10:44:31;6.53;;;4.20;;
28934;SDS011;16044;52.726;-2.108;2023-07-22T10:47:05;7.07;;;4.68;;
28934;SDS011;16044;52.726;-2.108;2023-07-22T10:49:44;8.38;;;4.70;;
28934;SDS011;16044;52.726;-2.108;2023-07-22T10:55:14;7.28;;;5.10;;
28934;SDS011;16044;52.726;-2.108;2023-07-22T10:57:49;6.00;;;4.72;;
28934;SDS011;16044;52.726;-2.108;2023-07-22T11:00:22;7.65;;;4.95;;
28934;SDS011;16044;52.726;-2.108;2023-07-22T11:05:49;8.23;;;5.50;;
28934;SDS011;16044;52.726;-2.108;2023-07-22T11:08:35;8.05;;;5.43;;
28934;SDS011;16044;52.726;-2.108;2023-07-22T11:11:06;11.15;;;6.10;;
28934;SDS011;16044;52.726;-2.108;2023-07-22T11:13:39;9.30;;;5.95;;
28934;SDS011;16044;52.726;-2.108;2023-07-22T11:16:10;10.95;;;6.13;;
28934;SDS011;16044;52.726;-2.108;2023-07-22T11:18:43;11.27;;;6.00;;
28934;SDS011;16044;52.726;-2.108;2023-07-22T11:21:14;10.50;;;5.93;;
28934;SDS011;16044;52.726;-2.108;2023-07-22T11:23:44;7.63;;;5.65;;
28934;SDS011;16044;52.726;-2.108;2023-07-22T11:26:14;7.00;;;5.10;;
28934;SDS011;16044;52.726;-2.108;2023-07-22T11:28:45;8.43;;;5.75;;
28934;SDS011;16044;52.726;-2.108;2023-07-22T11:31:16;9.45;;;5.30;;
28934;SDS011;16044;52.726;-2.108;2023-07-22T11:33:49;8.48;;;4.93;;
28934;SDS011;16044;52.726;-2.108;2023-07-22T11:36:19;7.10;;;5.20;;
28934;SDS011;16044;52.726;-2.108;2023-07-22T11:38:50;6.18;;;4.43;;
28934;SDS011;16044;52.726;-2.108;2023-07-22T11:41:21;6.40;;;4.50;;
28934;SDS011;16044;52.726;-2.108;2023-07-22T11:43:52;6.72;;;4.13;;
28934;SDS011;16044;52.726;-2.108;2023-07-22T11:46:23;6.30;;;3.95;;
28934;SDS011;16044;52.726;-2.108;2023-07-22T11:48:56;5.88;;;4.20;;
28934;SDS011;16044;52.726;-2.108;2023-07-22T11:51:29;6.20;;;3.65;;
28934;SDS011;16044;52.726;-2.108;2023-07-22T11:54:00;6.55;;;3.95;;
28934;SDS011;16044;52.726;-2.108;2023-07-22T11:56:30;5.63;;;3.50;;
28934;SDS011;16044;52.726;-2.108;2023-07-22T11:59:00;4.70;;;3.38;;
28934;SDS011;16044;52.726;-2.108;2023-07-22T12:01:31;4.93;;;3.03;;
28934;SDS011;16044;52.726;-2.108;2023-07-22T12:04:08;4.68;;;3.30;;
28934;SDS011;16044;52.726;-2.108;2023-07-22T12:06:40;4.07;;;3.30;;
28934;SDS011;16044;52.726;-2.108;2023-07-22T12:09:11;5.82;;;3.33;;
28934;SDS011;16044;52.726;-2.108;2023-07-22T12:11:41;4.13;;;2.90;;
28934;SDS011;16044;52.726;-2.108;2023-07-22T12:14:12;4.95;;;3.10;;
28934;SDS011;16044;52.726;-2.108;2023-07-22T12:16:43;4.65;;;3.17;;
28934;SDS011;16044;52.726;-2.108;2023-07-22T12:19:16;4.10;;;3.22;;
28934;SDS011;16044;52.726;-2.108;2023-07-22T12:21:46;4.13;;;3.10;;
28934;SDS011;16044;52.726;-2.108;2023-07-22T12:24:17;4.60;;;3.38;;
28934;SDS011;16044;52.726;-2.108;2023-07-22T12:26:47;3.50;;;2.58;;
28934;SDS011;16044;52.726;-2.108;2023-07-22T12:29:18;3.75;;;2.88;;
28934;SDS011;16044;52.726;-2.108;2023-07-22T12:31:48;3.13;;;2.67;;
28934;SDS011;16044;52.726;-2.108;2023-07-22T12:34:21;4.30;;;3.10;;
28934;SDS011;16044;52.726;-2.108;2023-07-22T12:36:52;4.47;;;2.80;;
28934;SDS011;16044;52.726;-2.108;2023-07-22T12:39:22;3.85;;;2.35;;
28934;SDS011;16044;52.726;-2.108;2023-07-22T12:41:52;3.67;;;2.53;;
28934;SDS011;16044;52.726;-2.108;2023-07-22T12:44:22;3.65;;;2.45;;
28934;SDS011;16044;52.726;-2.108;2023-07-22T12:46:53;3.80;;;2.92;;
28934;SDS011;16044;52.726;-2.108;2023-07-22T12:49:26;5.45;;;2.88;;
28934;SDS011;16044;52.726;-2.108;2023-07-22T12:51:56;5.82;;;2.92;;
28934;SDS011;16044;52.726;-2.108;2023-07-22T12:54:31;5.00;;;2.97;;
28934;SDS011;16044;52.726;-2.108;2023-07-22T12:57:01;4.65;;;2.90;;
28934;SDS011;16044;52.726;-2.108;2023-07-22T12:59:32;5.60;;;2.70;;
28934;SDS011;16044;52.726;-2.108;2023-07-22T13:02:02;3.22;;;2.40;;
28934;SDS011;16044;52.726;-2.108;2023-07-22T13:04:36;3.75;;;2.38;;
28934;SDS011;16044;52.726;-2.108;2023-07-22T13:07:06;3.17;;;2.30;;
28934;SDS011;16044;52.726;-2.108;2023-07-22T13:09:36;4.78;;;2.90;;
28934;SDS011;16044;52.726;-2.108;2023-07-22T13:12:07;4.10;;;2.78;;
28934;SDS011;16044;52.726;-2.108;2023-07-22T13:14:38;4.60;;;2.58;;
28934;SDS011;16044;52.726;-2.108;2023-07-22T13:17:08;3.83;;;2.70;;
28934;SDS011;16044;52.726;-2.108;2023-07-22T13:19:41;5.10;;;2.80;;
28934;SDS011;16044;52.726;-2.108;2023-07-22T13:22:11;5.00;;;2.70;;
28934;SDS011;16044;52.726;-2.108;2023-07-22T13:24:42;5.63;;;2.58;;
28934;SDS011;16044;52.726;-2.108;2023-07-22T13:27:12;4.65;;;2.85;;
28934;SDS011;16044;52.726;-2.108;2023-07-22T13:29:42;5.63;;;2.90;;
28934;SDS011;16044;52.726;-2.108;2023-07-22T13:32:13;4.20;;;2.75;;
28934;SDS011;16044;52.726;-2.108;2023-07-22T13:34:46;4.93;;;2.75;;
28934;SDS011;16044;52.726;-2.108;2023-07-22T13:37:16;4.72;;;3.28;;
28934;SDS011;16044;52.726;-2.108;2023-07-22T13:39:46;4.15;;;2.90;;
28934;SDS011;16044;52.726;-2.108;2023-07-22T13:42:17;5.97;;;3.22;;
28934;SDS011;16044;52.726;-2.108;2023-07-22T13:44:47;5.07;;;2.70;;
28934;SDS011;16044;52.726;-2.108;2023-07-22T13:47:17;4.45;;;2.60;;
28934;SDS011;16044;52.726;-2.108;2023-07-22T13:49:50;3.60;;;2.53;;
28934;SDS011;16044;52.726;-2.108;2023-07-22T13:52:20;3.88;;;2.80;;
28934;SDS011;16044;52.726;-2.108;2023-07-22T13:54:51;5.30;;;3.20;;
28934;SDS011;16044;52.726;-2.108;2023-07-22T13:57:21;5.72;;;2.72;;
28934;SDS011;16044;52.726;-2.108;2023-07-22T13:59:51;4.32;;;2.60;;
28934;SDS011;16044;52.726;-2.108;2023-07-22T14:02:22;6.35;;;2.75;;
28934;SDS011;16044;52.726;-2.108;2023-07-22T14:04:55;4.25;;;2.65;;
28934;SDS011;16044;52.726;-2.108;2023-07-22T14:07:25;4.05;;;2.75;;
28934;SDS011;16044;52.726;-2.108;2023-07-22T14:09:55;4.50;;;2.50;;
28934;SDS011;16044;52.726;-2.108;2023-07-22T14:12:26;4.57;;;2.65;;
28934;SDS011;16044;52.726;-2.108;2023-07-22T14:14:56;3.97;;;2.20;;
28934;SDS011;16044;52.726;-2.108;2023-07-22T14:17:26;3.53;;;2.42;;
28934;SDS011;16044;52.726;-2.108;2023-07-22T14:19:59;6.30;;;2.67;;
28934;SDS011;16044;52.726;-2.108;2023-07-22T14:22:31;4.85;;;2.80;;
28934;SDS011;16044;52.726;-2.108;2023-07-22T14:25:02;5.32;;;2.70;;
28934;SDS011;16044;52.726;-2.108;2023-07-22T14:27:33;4.88;;;2.70;;
28934;SDS011;16044;52.726;-2.108;2023-07-22T14:30:04;5.45;;;3.08;;
28934;SDS011;16044;52.726;-2.108;2023-07-22T14:32:36;4.30;;;2.55;;
28934;SDS011;16044;52.726;-2.108;2023-07-22T14:35:09;4.00;;;2.58;;
28934;SDS011;16044;52.726;-2.108;2023-07-22T14:37:40;5.55;;;2.60;;
28934;SDS011;16044;52.726;-2.108;2023-07-22T14:40:10;6.30;;;3.35;;
28934;SDS011;16044;52.726;-2.108;2023-07-22T14:42:42;4.00;;;2.83;;
28934;SDS011;16044;52.726;-2.108;2023-07-22T14:45:12;4.38;;;3.05;;
28934;SDS011;16044;52.726;-2.108;2023-07-22T14:47:42;5.10;;;2.70;;
28934;SDS011;16044;52.726;-2.108;2023-07-22T14:50:16;4.32;;;2.65;;
28934;SDS011;16044;52.726;-2.108;2023-07-22T14:52:47;4.72;;;2.70;;
28934;SDS011;16044;52.726;-2.108;2023-07-22T14:55:17;4.50;;;2.80;;
28934;SDS011;16044;52.726;-2.108;2023-07-22T14:57:48;4.95;;;2.60;;
28934;SDS011;16044;52.726;-2.108;2023-07-22T15:00:18;3.53;;;2.42;;
28934;SDS011;16044;52.726;-2.108;2023-07-22T15:02:49;3.42;;;2.05;;